Time;durP1;ratioP1;P1;durP2;ratioP2;P2;SDS_P1;SDS_P2;PMS_P1;PMS_P2;Temp;Humidity;BMP_temperature;BMP_pressure;BME280_temperature;BME280_humidity;BME280_pressure;Samples;Min_cycle;Max_cycle;Signal;HPM_P1;HPM_P2
2021/09/14 00:01:25;;;;;;;33.67;20.83;;;;;;;14.69;100.00;100003.84;1803623;77;21160;-80
2021/09/14 00:03:51;;;;;;;33.53;21.40;;;;;;;14.67;100.00;100000.64;1806046;77;21732;-68
2021/09/14 00:06:18;;;;;;;35.83;21.87;;;;;;;14.76;100.00;99999.33;1779736;78;21562;-68
2021/09/14 00:08:46;;;;;;;35.07;21.80;;;;;;;14.82;100.00;100011.59;1791485;77;21560;-77
2021/09/14 00:11:14;;;;;;;33.63;20.60;;;;;;;14.86;100.00;100012.48;1789666;77;22119;-68
2021/09/14 00:13:42;;;;;;;34.30;20.73;;;;;;;14.79;100.00;100000.73;1797043;78;20974;-69
2021/09/14 00:16:09;;;;;;;30.80;19.83;;;;;;;14.86;100.00;100001.48;1786300;77;21135;-69
2021/09/14 00:18:37;;;;;;;34.97;19.17;;;;;;;14.92;100.00;100008.46;1793390;77;21539;-79
2021/09/14 00:21:03;;;;;;;36.20;19.53;;;;;;;14.77;100.00;99997.51;1789173;77;21610;-70
2021/09/14 00:23:30;;;;;;;33.97;20.37;;;;;;;14.81;100.00;99999.51;1760729;79;21780;-77
2021/09/14 00:25:57;;;;;;;31.57;20.43;;;;;;;14.79;100.00;99998.11;1801967;77;21680;-70
2021/09/14 00:28:24;;;;;;;29.60;19.67;;;;;;;14.72;100.00;99992.91;1759817;81;21803;-69
2021/09/14 00:30:51;;;;;;;35.20;20.30;;;;;;;14.61;100.00;99992.31;1791332;77;21673;-70
2021/09/14 00:33:19;;;;;;;32.30;20.30;;;;;;;14.65;100.00;99987.44;1799266;77;23194;-69
2021/09/14 00:35:45;;;;;;;32.10;19.67;;;;;;;14.63;100.00;99991.60;1787412;77;22330;-72
2021/09/14 00:38:12;;;;;;;26.50;18.97;;;;;;;14.55;100.00;99986.63;1812061;77;23235;-70
2021/09/14 00:40:39;;;;;;;31.40;19.37;;;;;;;14.49;100.00;99990.08;1807004;77;21783;-70
2021/09/14 00:43:06;;;;;;;33.13;18.20;;;;;;;14.38;100.00;99993.39;1797692;78;21585;-70
2021/09/14 00:45:32;;;;;;;34.37;22.10;;;;;;;14.39;100.00;99997.10;1802190;77;21801;-76
2021/09/14 00:47:59;;;;;;;32.90;20.90;;;;;;;14.33;100.00;99991.42;1796660;78;22118;-71
2021/09/14 00:50:26;;;;;;;39.70;20.17;;;;;;;14.23;100.00;99997.12;1807327;77;22486;-71
2021/09/14 00:52:52;;;;;;;35.57;21.67;;;;;;;14.19;100.00;99993.33;1809981;78;22173;-71
2021/09/14 00:55:19;;;;;;;30.77;20.13;;;;;;;14.09;100.00;99996.44;1808751;77;21656;-76
2021/09/14 00:57:45;;;;;;;32.50;19.67;;;;;;;14.09;100.00;100002.16;1773323;78;22090;-72
2021/09/14 01:00:13;;;;;;;35.27;20.57;;;;;;;14.14;100.00;99997.11;1799994;77;21776;-71
2021/09/14 01:02:42;;;;;;;34.07;20.63;;;;;;;14.09;100.00;99992.50;1809137;79;21643;-71
2021/09/14 01:05:11;;;;;;;32.47;20.27;;;;;;;14.08;100.00;99990.08;1785153;77;21642;-70
2021/09/14 01:07:38;;;;;;;31.90;19.53;;;;;;;14.13;100.00;99999.44;1803097;78;21663;-71
2021/09/14 01:10:07;;;;;;;30.87;20.00;;;;;;;14.19;100.00;99992.02;1783045;77;21699;-70
2021/09/14 01:12:35;;;;;;;35.37;19.97;;;;;;;14.26;100.00;99991.47;1810642;77;21720;-70
2021/09/14 01:15:04;;;;;;;33.20;19.93;;;;;;;14.51;100.00;99986.77;1806131;77;22251;-71
2021/09/14 01:17:31;;;;;;;32.97;19.53;;;;;;;14.51;100.00;99986.77;1802778;77;22011;-75
2021/09/14 01:19:59;;;;;;;29.20;19.50;;;;;;;14.43;100.00;99987.79;1778216;79;21700;-70
2021/09/14 01:22:29;;;;;;;34.47;20.07;;;;;;;14.67;100.00;99991.46;1792455;77;21594;-70
2021/09/14 01:24:57;;;;;;;29.20;20.70;;;;;;;14.65;100.00;99984.30;1798772;77;22148;-70
2021/09/14 01:27:24;;;;;;;29.97;18.17;;;;;;;14.42;100.00;99988.81;1799667;78;21730;-74
2021/09/14 01:32:36;;;;;;;28.43;19.93;;;;;;;14.39;100.00;100000.23;1795540;78;22170;-71
2021/09/14 01:35:11;;;;;;;32.20;19.87;;;;;;;14.28;100.00;100002.55;1809143;77;21709;-71
2021/09/14 01:37:39;;;;;;;32.00;19.90;;;;;;;14.32;100.00;100007.66;1774625;79;21768;-71
2021/09/14 01:40:07;;;;;;;35.40;19.33;;;;;;;14.48;100.00;100004.21;1799685;77;21607;-70
2021/09/14 01:42:35;;;;;;;34.40;17.80;;;;;;;14.43;100.00;100004.03;1774778;79;21647;-70
2021/09/14 01:45:03;;;;;;;34.40;19.80;;;;;;;14.41;100.00;100001.64;1764897;80;22130;-70
2021/09/14 01:47:30;;;;;;;35.50;19.97;;;;;;;14.34;100.00;100008.75;1723729;80;21776;-71
2021/09/14 01:49:57;;;;;;;28.77;19.80;;;;;;;14.35;100.00;100004.59;1740869;81;21557;-70
2021/09/14 01:52:26;;;;;;;29.73;19.70;;;;;;;14.35;100.00;100005.91;1757213;80;21743;-70
2021/09/14 01:54:54;;;;;;;32.83;19.30;;;;;;;14.29;100.00;100000.22;1728677;80;22420;-75
2021/09/14 01:57:24;;;;;;;32.87;17.80;;;;;;;14.42;100.00;100002.44;1739738;81;23040;-70
2021/09/14 01:59:51;;;;;;;30.50;18.23;;;;;;;14.40;100.00;99999.24;1739745;81;21631;-70
2021/09/14 02:02:30;;;;;;;31.13;19.10;;;;;;;14.40;100.00;100000.55;1719854;80;21654;-70
2021/09/14 02:04:52;;;;;;;28.27;19.30;;;;;;;14.35;100.00;100001.97;1717117;81;21625;-75
2021/09/14 02:07:33;;;;;;;29.23;18.47;;;;;;;14.30;100.00;100005.75;1710064;81;21675;-71
2021/09/14 02:24:03;;;;;;;33.73;18.00;;;;;;;14.34;100.00;100004.30;1764169;79;21624;-71
2021/09/14 02:59:11;;;;;;;29.40;16.33;;;;;;;14.36;100.00;100012.77;1766605;81;21628;-71
2021/09/14 03:01:38;;;;;;;34.03;18.00;;;;;;;14.30;100.00;100016.75;1731410;79;21643;-72
2021/09/14 03:04:08;;;;;;;28.77;17.23;;;;;;;14.48;100.00;100013.39;1757639;81;21651;-72
2021/09/14 03:06:34;;;;;;;29.03;16.60;;;;;;;14.47;100.00;100018.33;1761738;81;22080;-72
2021/09/14 03:09:03;;;;;;;25.93;17.87;;;;;;;14.50;100.00;100020.04;1750165;81;22609;-73
2021/09/14 03:11:31;;;;;;;29.37;16.97;;;;;;;14.44;100.00;100019.58;1734312;81;21649;-73
2021/09/14 03:14:01;;;;;;;25.67;17.87;;;;;;;14.39;100.00;100025.15;1761651;80;21615;-73
2021/09/14 03:16:30;;;;;;;28.10;17.60;;;;;;;14.11;100.00;100026.36;1762151;81;21918;-71
2021/09/14 03:18:57;;;;;;;26.77;16.87;;;;;;;14.11;100.00;100026.36;1762504;81;21567;-70
2021/09/14 03:21:25;;;;;;;25.37;16.80;;;;;;;14.34;100.00;100030.53;1752888;79;21559;-70
2021/09/14 03:23:52;;;;;;;28.20;17.70;;;;;;;14.38;100.00;100036.66;1748144;81;21726;-72
2021/09/14 03:26:19;;;;;;;25.03;17.53;;;;;;;14.65;100.00;100035.97;1753772;79;21558;-71
2021/09/14 03:28:46;;;;;;;26.03;16.57;;;;;;;14.76;100.00;100033.45;1760513;79;21590;-78
2021/09/14 03:31:15;;;;;;;25.13;17.40;;;;;;;15.06;100.00;100032.25;1761950;81;21685;-69
2021/09/14 03:33:44;;;;;;;26.97;17.63;;;;;;;15.50;100.00;100031.67;1761843;81;21610;-67
2021/09/14 03:36:11;;;;;;;28.50;16.10;;;;;;;15.94;100.00;100034.16;1750680;81;21019;-69
2021/09/14 03:38:39;;;;;;;28.50;16.53;;;;;;;16.59;100.00;100031.55;1751087;79;22211;-72
2021/09/14 03:41:06;;;;;;;26.67;16.57;;;;;;;17.12;100.00;100031.17;1745819;81;21425;-67
2021/09/14 03:43:32;;;;;;;23.47;16.50;;;;;;;17.66;100.00;100024.63;1747535;81;20952;-69
2021/09/14 03:45:59;;;;;;;31.63;17.00;;;;;;;18.14;100.00;100025.23;1753174;79;21302;-74
2021/09/14 03:48:28;;;;;;;23.60;15.97;;;;;;;18.67;100.00;100014.19;1752093;80;21276;-73
2021/09/14 03:50:55;;;;;;;23.23;16.77;;;;;;;19.31;100.00;100016.91;1750598;80;21103;-70
2021/09/14 03:53:21;;;;;;;27.70;16.80;;;;;;;19.84;100.00;100010.11;1746582;79;21007;-67
2021/09/14 03:55:48;;;;;;;23.40;17.20;;;;;;;20.38;100.00;100011.35;1750512;81;20942;-68
2021/09/14 03:58:15;;;;;;;32.80;16.87;;;;;;;20.97;100.00;100009.91;1751474;81;20833;-68
2021/09/14 04:00:43;;;;;;;23.60;16.67;;;;;;;21.51;100.00;100014.91;1720987;81;21010;-68
2021/09/14 04:03:16;;;;;;;22.35;15.80;;;;;;;22.16;100.00;100019.81;1735575;81;22079;-70
2021/09/14 04:05:58;;;;;;;21.80;15.23;;;;;;;22.73;100.00;100015.53;1700636;81;20945;-70
2021/09/14 04:10:42;;;;;;;26.83;16.17;;;;;;;24.00;94.41;100018.16;1725937;81;21051;-71
2021/09/14 04:13:11;;;;;;;24.10;16.43;;;;;;;24.17;86.34;100018.28;1726865;81;21063;-66
2021/09/14 04:15:38;;;;;;;23.13;16.10;;;;;;;24.66;78.10;100021.34;1723996;81;21198;-68
2021/09/14 04:18:10;;;;;;;24.70;17.63;;;;;;;24.66;76.75;100020.83;1698732;82;20933;-69
2021/09/14 04:20:36;;;;;;;23.63;16.30;;;;;;;24.99;70.93;100019.66;1705345;82;21098;-67
2021/09/14 04:23:02;;;;;;;33.73;18.13;;;;;;;25.60;65.39;100023.45;1708299;82;22171;-66
2021/09/14 04:25:29;;;;;;;30.73;17.47;;;;;;;25.92;60.59;100028.89;1771738;79;21054;-67
2021/09/14 04:27:55;;;;;;;24.15;16.15;;;;;;;26.14;59.32;100019.48;1741568;80;21118;-71
2021/09/14 04:30:22;;;;;;;21.60;15.32;;;;;;;26.65;56.62;100015.94;1741139;80;20995;-68
2021/09/14 04:32:49;;;;;;;19.30;16.42;;;;;;;26.96;53.01;100022.03;1771165;79;21077;-66
2021/09/14 04:35:17;;;;;;;23.27;17.98;;;;;;;26.95;51.54;100019.91;1762436;79;20996;-66
2021/09/14 04:37:43;;;;;;;29.35;18.57;;;;;;;27.19;49.64;100015.70;1770146;79;21030;-67
2021/09/14 04:40:13;;;;;;;22.32;17.05;;;;;;;27.51;47.73;100011.29;1766486;79;21030;-70
2021/09/14 04:42:40;;;;;;;26.50;18.82;;;;;;;27.79;46.72;100015.47;1779285;77;21072;-68
2021/09/14 04:45:09;;;;;;;28.38;19.67;;;;;;;27.88;46.09;100017.69;1729874;81;21486;-67
2021/09/14 04:47:36;;;;;;;32.83;19.15;;;;;;;28.26;44.87;100015.95;1740346;81;21539;-67
2021/09/14 04:50:03;;;;;;;25.62;18.90;;;;;;;28.54;43.34;100014.47;1751928;79;20988;-70
2021/09/14 04:52:31;;;;;;;25.43;19.32;;;;;;;28.76;42.33;100015.73;1742506;80;22343;-65
2021/09/14 04:55:00;;;;;;;24.30;18.25;;;;;;;28.99;41.13;100017.81;1769944;79;21017;-65
2021/09/14 04:57:27;;;;;;;20.62;16.95;;;;;;;29.12;41.04;100017.99;1759218;79;20934;-65
2021/09/14 04:59:54;;;;;;;22.27;18.05;;;;;;;29.39;40.30;100020.95;1760989;79;20932;-70
2021/09/14 05:02:21;;;;;;;24.63;21.85;;;;;;;29.40;40.59;100020.66;1758660;80;21035;-65
2021/09/14 05:04:47;;;;;;;25.17;20.72;;;;;;;29.82;40.04;100015.62;1754090;81;21146;-65
2021/09/14 05:07:14;;;;;;;24.60;19.25;;;;;;;30.04;39.45;100013.28;1751138;81;20993;-65
2021/09/14 05:09:41;;;;;;;24.02;21.02;;;;;;;30.15;39.00;100009.16;1735746;81;20898;-66
2021/09/14 05:12:10;;;;;;;28.55;22.27;;;;;;;30.06;38.88;100012.42;1752719;81;20976;-68
2021/09/14 05:14:39;;;;;;;24.23;21.20;;;;;;;29.87;39.21;100011.98;1742009;80;21504;-65
2021/09/14 05:17:25;;;;;;;30.60;19.92;;;;;;;29.55;40.04;100015.38;1736549;81;21160;-64
2021/09/14 05:20:11;;;;;;;24.75;18.87;;;;;;;29.24;40.64;100021.64;1751219;80;20929;-63
2021/09/14 05:22:37;;;;;;;24.33;18.97;;;;;;;29.02;41.32;100020.43;1749544;80;20977;-63
2021/09/14 05:25:07;;;;;;;24.55;19.12;;;;;;;28.80;41.83;100019.38;1746247;80;20944;-64
2021/09/14 05:27:34;;;;;;;22.55;18.48;;;;;;;28.48;42.54;100025.07;1748456;79;20973;-69
2021/09/14 05:30:00;;;;;;;23.67;17.90;;;;;;;28.23;42.69;100021.92;1741247;81;21100;-64
2021/09/14 05:32:27;;;;;;;29.85;20.77;;;;;;;27.91;43.62;100024.86;1744228;81;21001;-67
2021/09/14 05:34:54;;;;;;;27.62;22.07;;;;;;;27.68;44.52;100024.80;1754497;81;20968;-65
2021/09/14 05:37:21;;;;;;;43.98;30.35;;;;;;;27.43;45.32;100016.81;1736685;81;20980;-66
2021/09/14 05:39:49;;;;;;;40.33;28.23;;;;;;;27.24;46.64;100022.81;1741043;81;20992;-68
2021/09/14 05:42:18;;;;;;;37.75;26.85;;;;;;;27.13;47.62;100019.03;1741133;81;21004;-65
2021/09/14 05:44:46;;;;;;;35.58;26.12;;;;;;;27.16;48.59;100024.31;1748090;81;21458;-66
2021/09/14 05:47:13;;;;;;;135.28;104.40;;;;;;;27.07;49.10;100020.73;1731123;81;20945;-63
2021/09/14 05:49:40;;;;;;;144.30;102.60;;;;;;;26.92;50.12;100023.95;1728316;81;21399;-69
2021/09/14 05:52:07;;;;;;;58.83;50.10;;;;;;;26.82;51.10;100022.84;1725171;81;22355;-66
2021/09/14 05:54:34;;;;;;;39.48;28.55;;;;;;;26.75;52.25;100015.75;1743301;80;21147;-65
2021/09/14 05:57:03;;;;;;;34.88;26.07;;;;;;;26.93;52.18;100016.72;1678109;84;21490;-64
2021/09/14 05:59:30;;;;;;;35.45;25.77;;;;;;;26.98;51.83;100018.52;1728238;80;21530;-69
2021/09/14 06:01:57;;;;;;;43.55;34.88;;;;;;;26.98;52.15;100023.33;1743439;80;20936;-63
2021/09/14 06:04:24;;;;;;;45.85;34.23;;;;;;;27.21;52.43;100026.91;1734602;82;21094;-65
2021/09/14 06:06:52;;;;;;;39.60;29.15;;;;;;;27.58;50.76;100023.16;1766398;79;20928;-66
2021/09/14 06:09:20;;;;;;;40.33;31.42;;;;;;;27.86;49.66;100022.54;1783297;78;20995;-70
2021/09/14 06:11:47;;;;;;;50.00;39.20;;;;;;;27.96;49.74;100021.52;1759459;80;21358;-68
2021/09/14 06:14:14;;;;;;;41.77;34.75;;;;;;;28.09;50.42;100026.01;1752642;79;21059;-65
2021/09/14 06:16:41;;;;;;;70.05;53.98;;;;;;;28.49;49.38;100022.63;1763066;79;20896;-67
2021/09/14 06:19:08;;;;;;;46.60;36.88;;;;;;;28.74;48.25;100022.50;1752043;80;22101;-64
2021/09/14 06:21:37;;;;;;;39.00;31.95;;;;;;;29.03;47.66;100023.34;1785414;79;20908;-66
2021/09/14 06:24:05;;;;;;;35.13;29.75;;;;;;;29.20;46.25;100027.39;1711698;82;20943;-63
2021/09/14 06:26:35;;;;;;;36.48;30.55;;;;;;;29.49;45.43;100017.97;1733028;80;20979;-65
2021/09/14 06:29:03;;;;;;;33.95;27.10;;;;;;;29.93;44.77;100024.95;1760565;81;20916;-66
2021/09/14 06:31:31;;;;;;;34.25;24.98;;;;;;;30.53;43.64;100016.50;1753528;81;21020;-66
2021/09/14 06:33:59;;;;;;;33.83;25.02;;;;;;;31.21;42.28;100021.31;1771081;80;22331;-66
2021/09/14 06:36:27;;;;;;;29.02;23.87;;;;;;;32.04;40.47;100011.66;1755313;81;21521;-68
2021/09/14 06:38:53;;;;;;;28.67;24.43;;;;;;;32.51;39.50;100017.30;1768189;79;20940;-66
2021/09/14 06:41:21;;;;;;;29.80;23.60;;;;;;;33.14;37.84;100020.42;1767639;80;20964;-72
2021/09/14 06:43:48;;;;;;;29.95;24.12;;;;;;;33.45;37.18;100019.78;1756334;79;21126;-71
2021/09/14 06:46:15;;;;;;;32.53;27.70;;;;;;;33.97;36.11;100015.44;1759256;79;21902;-67
2021/09/14 06:48:51;;;;;;;32.58;25.23;;;;;;;34.35;35.22;100015.68;1750659;79;21032;-67
2021/09/14 06:51:19;;;;;;;32.83;23.95;;;;;;;34.69;34.61;100015.34;1769450;79;21008;-66
2021/09/14 06:53:45;;;;;;;29.57;23.30;;;;;;;34.82;33.26;100009.48;1768097;79;21019;-68
2021/09/14 06:56:12;;;;;;;29.90;24.20;;;;;;;35.11;32.84;100012.84;1755953;79;22771;-67
2021/09/14 06:58:41;;;;;;;29.65;23.52;;;;;;;35.20;32.36;100013.44;1753049;80;20948;-68
2021/09/14 07:01:10;;;;;;;31.02;23.02;;;;;;;35.31;32.35;100017.73;1705230;83;21023;-66
2021/09/14 07:03:37;;;;;;;31.12;24.72;;;;;;;35.20;31.49;100014.01;1705224;82;21526;-68
2021/09/14 07:06:04;;;;;;;32.20;23.40;;;;;;;34.84;31.38;100012.61;1735716;80;20941;-65
2021/09/14 07:08:32;;;;;;;29.90;22.70;;;;;;;34.12;32.81;100019.55;1755627;80;20988;-65
2021/09/14 07:10:59;;;;;;;33.15;23.12;;;;;;;33.91;32.99;100014.92;1738661;80;21087;-66
2021/09/14 07:13:27;;;;;;;26.52;22.25;;;;;;;33.48;33.91;100012.38;1750913;80;20997;-66
2021/09/14 07:15:54;;;;;;;30.62;25.92;;;;;;;33.59;34.15;100010.77;1740012;80;21047;-68
2021/09/14 07:18:20;;;;;;;30.60;22.90;;;;;;;33.96;33.84;100007.11;1730154;81;22575;-66
2021/09/14 07:20:47;;;;;;;26.77;21.55;;;;;;;34.22;33.65;100005.30;1752218;80;21090;-67
2021/09/14 07:23:13;;;;;;;28.02;21.12;;;;;;;34.68;33.25;100005.09;1739658;80;20924;-66
2021/09/14 07:25:41;;;;;;;22.45;19.25;;;;;;;35.31;31.24;99996.05;1753407;80;20909;-68
2021/09/14 07:28:08;;;;;;;29.10;20.55;;;;;;;35.60;31.11;99997.98;1743457;81;20940;-66
2021/09/14 07:30:36;;;;;;;21.97;17.87;;;;;;;35.90;30.04;99992.73;1740984;81;21432;-66
2021/09/14 07:33:03;;;;;;;22.65;18.02;;;;;;;35.88;29.90;99994.46;1745173;81;21160;-66
2021/09/14 07:35:31;;;;;;;27.25;18.23;;;;;;;35.99;29.79;99992.75;1737604;81;21564;-66
2021/09/14 07:37:58;;;;;;;19.52;17.17;;;;;;;36.33;29.26;99986.11;1747537;81;21043;-67
2021/09/14 07:40:26;;;;;;;20.88;17.48;;;;;;;36.61;28.48;99984.45;1726234;80;21026;-65
2021/09/14 07:42:54;;;;;;;17.67;15.68;;;;;;;36.62;28.03;99985.23;1721226;81;21169;-66
2021/09/14 07:45:22;;;;;;;17.98;13.88;;;;;;;36.65;27.76;99989.36;1702800;81;21184;-65
2021/09/14 07:47:49;;;;;;;21.07;15.13;;;;;;;36.94;26.19;99982.44;1706584;81;21138;-66
2021/09/14 07:50:16;;;;;;;19.85;16.30;;;;;;;37.06;25.69;99984.72;1720913;82;22042;-66
2021/09/14 07:52:43;;;;;;;24.30;20.40;;;;;;;37.05;25.68;99984.48;1709574;81;21501;-65
2021/09/14 07:55:10;;;;;;;21.57;19.27;;;;;;;37.03;26.38;99978.66;1723391;81;21876;-64
2021/09/14 07:57:36;;;;;;;33.42;27.52;;;;;;;37.13;25.97;99979.38;1710470;82;21145;-65
2021/09/14 08:00:05;;;;;;;23.65;21.15;;;;;;;37.35;25.83;99985.25;1711707;81;20939;-66
2021/09/14 08:02:33;;;;;;;27.50;20.77;;;;;;;37.44;25.23;99972.20;1700999;81;20949;-66
2021/09/14 08:05:00;;;;;;;24.43;21.62;;;;;;;37.48;25.12;99970.87;1698584;81;21396;-65
2021/09/14 08:07:27;;;;;;;23.47;18.50;;;;;;;37.73;25.43;99980.09;1690801;81;21632;-65
2021/09/14 08:09:53;;;;;;;23.22;19.27;;;;;;;37.99;25.18;99975.67;1695909;81;21151;-69
2021/09/14 08:12:20;;;;;;;20.65;18.52;;;;;;;38.01;24.69;99969.87;1692687;81;21039;-66
2021/09/14 08:14:48;;;;;;;21.57;18.82;;;;;;;38.04;24.66;99969.90;1696037;81;21000;-66
2021/09/14 08:17:17;;;;;;;21.35;18.37;;;;;;;38.04;24.34;99971.84;1696506;81;21023;-64
2021/09/14 08:19:44;;;;;;;22.22;17.48;;;;;;;37.93;24.48;99964.36;1694539;82;21755;-65
2021/09/14 08:22:12;;;;;;;20.97;18.32;;;;;;;37.93;24.69;99962.22;1690371;81;20964;-70
2021/09/14 08:24:39;;;;;;;39.27;34.45;;;;;;;38.00;23.86;99962.84;1690187;83;21109;-66
2021/09/14 08:27:06;;;;;;;17.27;15.13;;;;;;;38.16;24.52;99962.02;1687684;83;21078;-68
2021/09/14 08:29:33;;;;;;;18.20;15.65;;;;;;;38.34;22.95;99960.25;1693866;83;21028;-66
2021/09/14 08:32:01;;;;;;;18.35;14.03;;;;;;;38.42;22.75;99959.72;1692615;81;21043;-68
2021/09/14 08:34:27;;;;;;;22.98;16.52;;;;;;;38.29;22.04;99960.55;1688555;81;22473;-66
2021/09/14 08:36:54;;;;;;;19.48;14.20;;;;;;;38.05;23.08;99953.77;1698593;81;21584;-66
2021/09/14 08:39:21;;;;;;;105.95;88.40;;;;;;;37.97;22.98;99952.92;1692857;81;21099;-67
2021/09/14 08:41:47;;;;;;;40.58;33.23;;;;;;;38.03;22.53;99945.19;1689055;81;21232;-68
2021/09/14 08:44:14;;;;;;;36.05;32.15;;;;;;;38.13;22.40;99950.52;1696625;83;20959;-71
2021/09/14 08:46:42;;;;;;;17.02;12.47;;;;;;;38.25;21.62;99949.44;1706234;82;21207;-66
2021/09/14 08:49:13;;;;;;;16.90;12.00;;;;;;;38.21;21.60;99945.33;1709975;82;21048;-66
2021/09/14 08:51:39;;;;;;;17.07;12.23;;;;;;;38.13;21.78;99943.13;1703231;81;21452;-65
2021/09/14 08:54:06;;;;;;;15.95;13.43;;;;;;;38.28;21.51;99939.94;1716483;82;21174;-69
2021/09/14 08:56:32;;;;;;;12.05;10.03;;;;;;;38.31;21.21;99942.50;1687039;82;21058;-65
2021/09/14 08:59:01;;;;;;;15.63;11.35;;;;;;;38.37;21.17;99933.59;1692273;81;21160;-66
2021/09/14 09:01:28;;;;;;;17.65;12.23;;;;;;;38.30;21.18;99933.55;1706516;82;21095;-68
2021/09/14 09:04:03;;;;;;;14.63;10.68;;;;;;;38.31;21.74;99933.75;1694488;82;21035;-66
2021/09/14 09:06:38;;;;;;;22.45;12.30;;;;;;;38.52;21.73;99930.39;1698248;82;20968;-66
2021/09/14 09:09:16;;;;;;;19.12;13.53;;;;;;;38.73;21.21;99927.02;1702393;82;20955;-66
2021/09/14 09:12:03;;;;;;;12.97;10.20;;;;;;;38.64;20.96;99927.92;1694320;83;20972;-70
2021/09/14 09:14:42;;;;;;;12.58;9.13;;;;;;;38.66;21.29;99931.06;1692855;83;21409;-65
2021/09/14 09:17:13;;;;;;;11.30;9.00;;;;;;;38.54;20.49;99919.91;1688824;82;20950;-66
2021/09/14 09:19:41;;;;;;;15.30;9.98;;;;;;;38.29;21.29;99921.08;1665931;85;20945;-66
2021/09/14 09:22:11;;;;;;;13.28;11.05;;;;;;;38.48;21.36;99925.50;1744050;81;20976;-65
2021/09/14 09:24:50;;;;;;;39.35;14.95;;;;;;;38.69;20.63;99916.69;1738779;81;20882;-66
2021/09/14 09:27:20;;;;;;;15.18;11.22;;;;;;;38.81;20.59;99917.73;1719962;81;21565;-67
2021/09/14 09:30:01;;;;;;;12.23;10.50;;;;;;;38.74;20.28;99912.80;1742972;80;21091;-66
2021/09/14 09:32:29;;;;;;;;;;;;;;;38.47;20.42;99921.81;1727141;80;21282;-66
2021/09/14 09:34:58;;;;;;;14.60;10.45;;;;;;;38.33;20.75;99921.88;1705119;80;20164;-70
2021/09/14 09:37:25;;;;;;;12.55;10.50;;;;;;;38.45;20.78;99922.17;1721901;80;21528;-67
2021/09/14 09:39:52;;;;;;;13.58;9.90;;;;;;;38.56;20.54;99913.48;1744768;80;20985;-66
2021/09/14 09:42:20;;;;;;;13.40;10.00;;;;;;;38.54;20.43;99917.19;1754042;80;20893;-66
2021/09/14 09:44:58;;;;;;;10.88;9.10;;;;;;;38.50;20.28;99915.61;1741451;80;21119;-67
2021/09/14 09:47:24;;;;;;;13.20;10.40;;;;;;;38.44;20.28;99909.14;1742224;80;22067;-66
2021/09/14 09:49:52;;;;;;;13.80;10.63;;;;;;;38.24;20.39;99911.14;1752761;80;21847;-71
2021/09/14 09:52:19;;;;;;;12.37;9.05;;;;;;;38.07;20.22;99907.89;1734020;80;20933;-67
2021/09/14 09:54:46;;;;;;;12.70;9.98;;;;;;;37.97;20.34;99910.75;1750052;80;21057;-71
2021/09/14 09:57:12;;;;;;;13.45;8.45;;;;;;;37.73;20.06;99915.35;1746111;80;21149;-64
2021/09/14 09:59:40;;;;;;;14.53;9.70;;;;;;;37.22;20.55;99920.07;1754574;80;21564;-65
2021/09/14 10:02:26;;;;;;;10.75;8.83;;;;;;;36.93;21.35;99911.54;1734502;81;21093;-66
2021/09/14 10:05:07;;;;;;;11.18;10.05;;;;;;;36.88;21.15;99907.80;1782560;79;20985;-66
2021/09/14 10:07:34;;;;;;;13.93;10.15;;;;;;;36.76;21.60;99907.46;1761682;79;21623;-67
2021/09/14 10:10:02;;;;;;;14.00;11.63;;;;;;;36.93;21.76;99908.83;1782216;79;21066;-65
2021/09/14 10:12:33;;;;;;;16.97;15.15;;;;;;;37.19;21.43;99908.58;1772315;79;21563;-65
2021/09/14 10:15:09;;;;;;;15.72;13.30;;;;;;;37.41;21.25;99904.97;1786084;79;21126;-65
2021/09/14 10:17:54;;;;;;;18.40;14.63;;;;;;;37.47;20.16;99899.98;1771703;79;21004;-66
2021/09/14 10:20:22;;;;;;;16.82;15.03;;;;;;;37.63;20.34;99902.46;1780217;78;20982;-67
2021/09/14 10:23:00;;;;;;;17.98;15.18;;;;;;;37.78;20.22;99896.57;1790245;78;20991;-65
2021/09/14 10:25:27;;;;;;;19.70;16.48;;;;;;;37.76;19.84;99892.84;1764975;79;20991;-65
2021/09/14 10:28:12;;;;;;;23.92;16.20;;;;;;;37.63;20.14;99896.44;1767657;79;21218;-68
2021/09/14 10:30:38;;;;;;;28.45;17.35;;;;;;;37.32;21.04;99892.23;1749523;80;21019;-63
2021/09/14 10:33:05;;;;;;;17.37;15.60;;;;;;;37.33;20.53;99892.42;1769199;79;20972;-69
2021/09/14 10:35:34;;;;;;;19.98;17.27;;;;;;;37.39;20.79;99888.23;1764010;80;20976;-65
2021/09/14 10:38:12;;;;;;;18.07;13.72;;;;;;;37.43;20.58;99896.42;1759465;80;21564;-70
2021/09/14 10:40:52;;;;;;;17.65;13.28;;;;;;;37.36;20.13;99894.98;1767047;79;21172;-65
2021/09/14 10:43:34;;;;;;;14.47;12.98;;;;;;;37.08;20.08;99890.01;1760645;80;20979;-66
2021/09/14 10:46:01;;;;;;;20.62;15.32;;;;;;;36.64;20.31;99887.33;1763110;80;22121;-66
2021/09/14 10:48:31;;;;;;;16.42;12.73;;;;;;;36.14;20.95;99886.59;1763556;80;21608;-68
2021/09/14 10:51:11;;;;;;;15.85;12.15;;;;;;;36.01;21.48;99887.93;1749101;81;20949;-69
2021/09/14 10:53:39;;;;;;;12.50;11.20;;;;;;;35.81;21.50;99882.55;1756727;80;22450;-65
2021/09/14 10:56:06;;;;;;;11.57;10.30;;;;;;;35.85;21.54;99881.26;1748330;81;21570;-66
2021/09/14 10:58:43;;;;;;;10.85;9.40;;;;;;;35.73;21.40;99877.38;1752890;79;21047;-65
2021/09/14 11:01:12;;;;;;;10.32;8.50;;;;;;;35.51;21.54;99879.72;1743236;79;21576;-68
2021/09/14 11:03:39;;;;;;;10.03;8.88;;;;;;;35.18;21.57;99886.22;1752825;79;21135;-64
2021/09/14 11:06:08;;;;;;;10.30;9.00;;;;;;;34.69;21.90;99886.75;1739594;80;21137;-64
2021/09/14 11:08:35;;;;;;;13.38;10.20;;;;;;;34.45;22.36;99889.89;1730062;80;21063;-64
2021/09/14 11:11:03;;;;;;;11.15;9.53;;;;;;;34.21;22.58;99878.72;1728188;81;21532;-68
2021/09/14 11:13:31;;;;;;;12.20;9.08;;;;;;;33.82;22.86;99885.84;1730392;80;21081;-65
2021/09/14 11:16:01;;;;;;;12.95;9.68;;;;;;;33.65;23.08;99885.06;1736181;81;21068;-64
2021/09/14 11:18:30;;;;;;;30.40;20.15;;;;;;;33.59;23.06;99881.60;1752271;80;24745;-64
2021/09/14 11:21:09;;;;;;;43.83;34.15;;;;;;;33.49;23.18;99874.80;1742994;80;20988;-66
2021/09/14 11:23:37;;;;;;;36.90;24.65;;;;;;;33.41;23.13;99875.69;1738384;80;21113;-63
2021/09/14 11:26:09;;;;;;;31.57;23.73;;;;;;;33.30;23.12;99882.73;1676235;84;21064;-65
2021/09/14 11:28:36;;;;;;;21.50;15.85;;;;;;;33.08;23.41;99875.41;1679364;84;22321;-68
2021/09/14 11:31:06;;;;;;;16.12;12.50;;;;;;;33.00;23.70;99872.83;1704726;84;22410;-62
2021/09/14 11:33:33;;;;;;;13.98;12.18;;;;;;;33.00;23.21;99874.18;1732546;81;21505;-64
2021/09/14 11:36:00;;;;;;;17.00;13.65;;;;;;;32.85;23.42;99873.77;1739151;80;21036;-67
2021/09/14 11:38:29;;;;;;;12.05;10.68;;;;;;;32.66;23.46;99866.84;1738041;81;20993;-67
2021/09/14 11:40:59;;;;;;;17.07;12.07;;;;;;;32.57;24.08;99872.34;1728692;81;21007;-66
2021/09/14 11:43:29;;;;;;;15.20;12.15;;;;;;;32.51;24.30;99868.90;1739266;81;21107;-68
2021/09/14 11:45:57;;;;;;;21.07;18.42;;;;;;;32.46;24.55;99865.84;1732891;80;24533;-69
2021/09/14 11:48:27;;;;;;;13.10;11.60;;;;;;;32.67;24.55;99863.02;1744709;80;21491;-66
2021/09/14 11:51:09;;;;;;;35.48;26.82;;;;;;;33.05;24.32;99855.83;1752237;80;21004;-66
2021/09/14 11:53:38;;;;;;;25.62;21.75;;;;;;;33.20;24.08;99861.63;1678753;84;20957;-66
2021/09/14 11:56:12;;;;;;;16.25;12.93;;;;;;;33.30;24.12;99855.71;1700071;82;20914;-67
2021/09/14 11:58:48;;;;;;;27.58;19.02;;;;;;;33.26;24.45;99857.53;1699335;82;20958;-68
2021/09/14 12:01:19;;;;;;;16.07;13.62;;;;;;;33.17;24.16;99858.48;1686950;83;21684;-66
2021/09/14 12:03:51;;;;;;;18.15;14.55;;;;;;;32.98;24.04;99857.55;1684744;83;21096;-66
2021/09/14 12:06:24;;;;;;;51.42;32.23;;;;;;;32.73;24.02;99862.98;1727820;80;20871;-65
2021/09/14 12:08:51;;;;;;;45.05;29.98;;;;;;;32.56;24.49;99864.61;1736223;80;21131;-66
2021/09/14 12:11:31;;;;;;;28.90;17.85;;;;;;;32.43;24.92;99863.84;1696477;83;21867;-68